Wanamakers, Pennsylvania
Current Conditions -  °F | °C
As of 11:54 PM on Monday 20 Oct 2014 (Local Time) from KRDG Reporting Station
Overcast Overcast  
Wind Chill: 13°   Ceiling: 7000
Heat Index: 13°   Visibility: 10mi
Dew Point:   Wind: 9mph
Humidity: 75%   Direction: 170°S
Pressure: 29.92"   Gusts: NA
Location:  40.6329°N, 75.8768°W
Report Text: KRDG 210354Z AUTO 17008KT 10SM FEW055 OVC070 13/09 A2992 RMK AO2 RAE46 SLP137 P0000 T01330089
Loading
Personal Weather Stations






























Interactive Weather Map
Tropical Storm Tracking
New forecast layout! Learn more

10-Day Weather Forecast

Advertisements
Track Severe Weather on mobile